sensor_id;sensor_type;location;lat;lon;timestamp;pressure;altitude;pressure_sealevel;temperature;humidity
8697;BME280;4385;48.848;8.924;2022-07-22T00:01:59;97778.16;;;25.59;100.00
8697;BME280;4385;48.848;8.924;2022-07-22T00:04:24;97788.47;;;25.59;100.00
8697;BME280;4385;48.848;8.924;2022-07-22T00:06:49;97781.63;;;25.58;100.00
8697;BME280;4385;48.848;8.924;2022-07-22T00:09:15;97785.13;;;25.57;100.00
8697;BME280;4385;48.848;8.924;2022-07-22T00:11:41;97779.97;;;25.57;100.00
8697;BME280;4385;48.848;8.924;2022-07-22T00:14:07;97784.34;;;25.55;100.00
8697;BME280;4385;48.848;8.924;2022-07-22T00:16:32;97784.28;;;25.56;100.00
8697;BME280;4385;48.848;8.924;2022-07-22T00:18:58;97780.97;;;25.54;100.00
8697;BME280;4385;48.848;8.924;2022-07-22T00:21:23;97779.25;;;25.53;100.00
8697;BME280;4385;48.848;8.924;2022-07-22T00:23:49;97779.34;;;25.51;100.00
8697;BME280;4385;48.848;8.924;2022-07-22T00:26:14;97769.94;;;25.50;100.00
8697;BME280;4385;48.848;8.924;2022-07-22T00:28:40;97778.59;;;25.49;100.00
8697;BME280;4385;48.848;8.924;2022-07-22T00:31:05;97771.75;;;25.48;100.00
8697;BME280;4385;48.848;8.924;2022-07-22T00:33:31;97770.00;;;25.49;100.00
8697;BME280;4385;48.848;8.924;2022-07-22T00:35:56;97764.91;;;25.47;100.00
8697;BME280;4385;48.848;8.924;2022-07-22T00:38:21;97772.66;;;25.47;100.00
8697;BME280;4385;48.848;8.924;2022-07-22T00:40:46;97763.25;;;25.46;100.00
8697;BME280;4385;48.848;8.924;2022-07-22T00:43:12;97773.56;;;25.46;100.00
8697;BME280;4385;48.848;8.924;2022-07-22T00:45:37;97769.22;;;25.47;100.00
8697;BME280;4385;48.848;8.924;2022-07-22T00:48:03;97766.72;;;25.45;100.00
8697;BME280;4385;48.848;8.924;2022-07-22T00:50:28;97764.16;;;25.45;100.00
8697;BME280;4385;48.848;8.924;2022-07-22T00:52:54;97759.91;;;25.44;100.00
8697;BME280;4385;48.848;8.924;2022-07-22T00:55:19;97768.56;;;25.43;100.00
8697;BME280;4385;48.848;8.924;2022-07-22T00:57:45;97762.56;;;25.43;100.00
8697;BME280;4385;48.848;8.924;2022-07-22T01:00:14;97766.88;;;25.42;100.00
8697;BME280;4385;48.848;8.924;2022-07-22T01:02:40;97758.25;;;25.43;100.00
8697;BME280;4385;48.848;8.924;2022-07-22T01:05:06;97762.69;;;25.39;100.00
8697;BME280;4385;48.848;8.924;2022-07-22T01:07:32;97755.03;;;25.38;100.00
8697;BME280;4385;48.848;8.924;2022-07-22T01:09:57;97758.47;;;25.38;100.00
8697;BME280;4385;48.848;8.924;2022-07-22T01:12:23;97752.44;;;25.38;100.00
8697;BME280;4385;48.848;8.924;2022-07-22T01:14:48;97748.22;;;25.37;100.00
8697;BME280;4385;48.848;8.924;2022-07-22T01:17:13;97751.69;;;25.36;100.00
8697;BME280;4385;48.848;8.924;2022-07-22T01:19:39;97749.16;;;25.34;100.00
8697;BME280;4385;48.848;8.924;2022-07-22T01:22:05;97748.34;;;25.34;100.00
8697;BME280;4385;48.848;8.924;2022-07-22T01:24:31;97750.00;;;25.35;100.00
8697;BME280;4385;48.848;8.924;2022-07-22T01:26:56;97757.81;;;25.33;100.00
8697;BME280;4385;48.848;8.924;2022-07-22T01:29:21;97758.75;;;25.32;100.00
8697;BME280;4385;48.848;8.924;2022-07-22T01:31:46;97756.16;;;25.32;100.00
8697;BME280;4385;48.848;8.924;2022-07-22T01:34:12;97759.63;;;25.31;100.00
8697;BME280;4385;48.848;8.924;2022-07-22T01:36:37;97753.66;;;25.31;100.00
8697;BME280;4385;48.848;8.924;2022-07-22T01:39:03;97747.66;;;25.30;100.00
8697;BME280;4385;48.848;8.924;2022-07-22T01:41:28;97756.25;;;25.31;100.00
8697;BME280;4385;48.848;8.924;2022-07-22T01:43:54;97753.66;;;25.31;100.00
8697;BME280;4385;48.848;8.924;2022-07-22T01:46:19;97751.16;;;25.29;100.00
8697;BME280;4385;48.848;8.924;2022-07-22T01:48:45;97755.38;;;25.30;100.00
8697;BME280;4385;48.848;8.924;2022-07-22T01:51:10;97752.88;;;25.28;100.00
8697;BME280;4385;48.848;8.924;2022-07-22T01:53:35;97745.16;;;25.28;100.00
8697;BME280;4385;48.848;8.924;2022-07-22T01:56:01;97751.22;;;25.27;100.00
8697;BME280;4385;48.848;8.924;2022-07-22T01:58:26;97746.94;;;25.26;100.00
8697;BME280;4385;48.848;8.924;2022-07-22T02:00:52;97749.53;;;25.26;100.00
8697;BME280;4385;48.848;8.924;2022-07-22T02:03:17;97751.28;;;25.26;100.00
8697;BME280;4385;48.848;8.924;2022-07-22T02:05:43;97748.72;;;25.26;100.00
8697;BME280;4385;48.848;8.924;2022-07-22T02:08:10;97755.59;;;25.25;100.00
8697;BME280;4385;48.848;8.924;2022-07-22T02:10:36;97751.38;;;25.24;100.00
8697;BME280;4385;48.848;8.924;2022-07-22T02:13:03;97753.09;;;25.24;100.00
8697;BME280;4385;48.848;8.924;2022-07-22T02:15:29;97755.66;;;25.24;100.00
8697;BME280;4385;48.848;8.924;2022-07-22T02:17:55;97746.28;;;25.23;100.00
8697;BME280;4385;48.848;8.924;2022-07-22T02:20:20;97748.00;;;25.22;100.00
8697;BME280;4385;48.848;8.924;2022-07-22T02:22:46;97744.59;;;25.22;100.00
8697;BME280;4385;48.848;8.924;2022-07-22T02:25:11;97748.94;;;25.21;100.00
8697;BME280;4385;48.848;8.924;2022-07-22T02:27:37;97745.50;;;25.21;100.00
8697;BME280;4385;48.848;8.924;2022-07-22T02:30:04;97743.91;;;25.18;100.00
8697;BME280;4385;48.848;8.924;2022-07-22T02:32:30;97743.91;;;25.18;100.00
8697;BME280;4385;48.848;8.924;2022-07-22T02:34:55;97739.63;;;25.17;100.00
8697;BME280;4385;48.848;8.924;2022-07-22T02:37:21;97739.63;;;25.17;100.00
8697;BME280;4385;48.848;8.924;2022-07-22T02:39:46;97736.25;;;25.17;100.00
8697;BME280;4385;48.848;8.924;2022-07-22T02:42:12;97735.41;;;25.16;100.00
8697;BME280;4385;48.848;8.924;2022-07-22T02:44:38;97736.31;;;25.15;100.00
8697;BME280;4385;48.848;8.924;2022-07-22T02:47:03;97736.31;;;25.15;100.00
8697;BME280;4385;48.848;8.924;2022-07-22T02:49:28;97743.19;;;25.14;100.00
8697;BME280;4385;48.848;8.924;2022-07-22T02:51:54;97736.38;;;25.13;100.00
8697;BME280;4385;48.848;8.924;2022-07-22T02:54:19;97747.50;;;25.14;100.00
8697;BME280;4385;48.848;8.924;2022-07-22T02:56:44;97739.84;;;25.12;100.00
8697;BME280;4385;48.848;8.924;2022-07-22T02:59:10;97739.84;;;25.12;100.00
8697;BME280;4385;48.848;8.924;2022-07-22T03:01:35;97740.78;;;25.11;100.00
8697;BME280;4385;48.848;8.924;2022-07-22T03:04:00;97744.19;;;25.12;100.00
8697;BME280;4385;48.848;8.924;2022-07-22T03:06:26;97754.50;;;25.12;100.00
8697;BME280;4385;48.848;8.924;2022-07-22T03:08:51;97750.22;;;25.11;100.00
8697;BME280;4385;48.848;8.924;2022-07-22T03:11:16;97751.16;;;25.10;100.00
8697;BME280;4385;48.848;8.924;2022-07-22T03:13:41;97741.69;;;25.10;100.00
8697;BME280;4385;48.848;8.924;2022-07-22T03:16:07;97752.00;;;25.10;100.00
8697;BME280;4385;48.848;8.924;2022-07-22T03:18:34;97750.31;;;25.09;100.00
8697;BME280;4385;48.848;8.924;2022-07-22T03:20:59;97746.97;;;25.07;100.00
8697;BME280;4385;48.848;8.924;2022-07-22T03:23:24;97748.72;;;25.07;100.00
8697;BME280;4385;48.848;8.924;2022-07-22T03:25:49;97751.28;;;25.07;100.00
8697;BME280;4385;48.848;8.924;2022-07-22T03:28:15;97752.22;;;25.06;100.00
8697;BME280;4385;48.848;8.924;2022-07-22T03:30:40;97753.88;;;25.07;100.00
8697;BME280;4385;48.848;8.924;2022-07-22T03:33:05;97753.03;;;25.06;100.00
8697;BME280;4385;48.848;8.924;2022-07-22T03:35:31;97743.63;;;25.05;100.00
8697;BME280;4385;48.848;8.924;2022-07-22T03:37:56;97753.09;;;25.05;100.00
8697;BME280;4385;48.848;8.924;2022-07-22T03:40:22;97753.09;;;25.05;100.00
8697;BME280;4385;48.848;8.924;2022-07-22T03:42:47;97747.13;;;25.04;100.00
8697;BME280;4385;48.848;8.924;2022-07-22T03:45:13;97741.97;;;25.04;100.00
8697;BME280;4385;48.848;8.924;2022-07-22T03:47:38;97746.28;;;25.03;100.00
8697;BME280;4385;48.848;8.924;2022-07-22T03:50:04;97748.00;;;25.03;100.00
8697;BME280;4385;48.848;8.924;2022-07-22T03:52:30;97747.19;;;25.02;100.00
8697;BME280;4385;48.848;8.924;2022-07-22T03:54:55;97742.09;;;25.01;100.00
8697;BME280;4385;48.848;8.924;2022-07-22T03:57:21;97743.75;;;25.02;100.00
8697;BME280;4385;48.848;8.924;2022-07-22T03:59:46;97743.84;;;25.00;100.00
8697;BME280;4385;48.848;8.924;2022-07-22T04:02:11;97732.75;;;24.98;100.00
8697;BME280;4385;48.848;8.924;2022-07-22T04:04:37;97740.47;;;24.98;100.00
8697;BME280;4385;48.848;8.924;2022-07-22T04:07:02;97746.56;;;24.97;100.00
8697;BME280;4385;48.848;8.924;2022-07-22T04:09:28;97745.69;;;24.97;100.00
8697;BME280;4385;48.848;8.924;2022-07-22T04:11:53;97754.34;;;24.96;100.00
8697;BME280;4385;48.848;8.924;2022-07-22T04:14:19;97750.13;;;24.95;100.00
8697;BME280;4385;48.848;8.924;2022-07-22T04:16:44;97744.09;;;24.94;100.00
8697;BME280;4385;48.848;8.924;2022-07-22T04:19:10;97746.75;;;24.93;100.00
8697;BME280;4385;48.848;8.924;2022-07-22T04:21:36;97748.41;;;24.94;100.00
8697;BME280;4385;48.848;8.924;2022-07-22T04:24:02;97749.34;;;24.93;100.00
8697;BME280;4385;48.848;8.924;2022-07-22T04:26:28;97744.25;;;24.91;100.00
8697;BME280;4385;48.848;8.924;2022-07-22T04:28:53;97739.03;;;24.93;100.00
8697;BME280;4385;48.848;8.924;2022-07-22T04:31:19;97740.75;;;24.92;100.00
8697;BME280;4385;48.848;8.924;2022-07-22T04:33:44;97727.88;;;24.92;100.00
8697;BME280;4385;48.848;8.924;2022-07-22T04:36:09;97737.38;;;24.92;100.00
8697;BME280;4385;48.848;8.924;2022-07-22T04:38:35;97729.63;;;24.92;100.00
8697;BME280;4385;48.848;8.924;2022-07-22T04:41:00;97736.44;;;24.93;100.00
8697;BME280;4385;48.848;8.924;2022-07-22T04:43:25;97730.44;;;24.92;100.00
8697;BME280;4385;48.848;8.924;2022-07-22T04:45:51;97726.22;;;24.91;100.00
8697;BME280;4385;48.848;8.924;2022-07-22T04:48:17;97737.38;;;24.92;100.00
8697;BME280;4385;48.848;8.924;2022-07-22T04:50:42;97733.03;;;24.92;100.00
8697;BME280;4385;48.848;8.924;2022-07-22T04:53:08;97733.03;;;24.92;100.00
8697;BME280;4385;48.848;8.924;2022-07-22T04:55:34;97732.22;;;24.92;100.00
8697;BME280;4385;48.848;8.924;2022-07-22T04:57:59;97729.69;;;24.90;100.00
8697;BME280;4385;48.848;8.924;2022-07-22T05:00:24;97732.28;;;24.90;100.00
8697;BME280;4385;48.848;8.924;2022-07-22T05:02:50;97735.75;;;24.89;100.00
8697;BME280;4385;48.848;8.924;2022-07-22T05:05:16;97730.50;;;24.90;100.00
8697;BME280;4385;48.848;8.924;2022-07-22T05:07:41;97732.28;;;24.90;100.00
8697;BME280;4385;48.848;8.924;2022-07-22T05:10:07;97725.34;;;24.90;100.00
8697;BME280;4385;48.848;8.924;2022-07-22T05:12:33;97726.22;;;24.91;100.00
8697;BME280;4385;48.848;8.924;2022-07-22T05:14:58;97722.78;;;24.90;100.00
8697;BME280;4385;48.848;8.924;2022-07-22T05:17:24;97725.34;;;24.90;100.00
8697;BME280;4385;48.848;8.924;2022-07-22T05:19:49;97725.34;;;24.90;100.00
8697;BME280;4385;48.848;8.924;2022-07-22T05:22:14;97729.69;;;24.90;100.00
8697;BME280;4385;48.848;8.924;2022-07-22T05:24:40;97726.22;;;24.91;100.00
8697;BME280;4385;48.848;8.924;2022-07-22T05:27:05;97725.34;;;24.90;100.00
8697;BME280;4385;48.848;8.924;2022-07-22T05:29:30;97732.22;;;24.92;100.00
8697;BME280;4385;48.848;8.924;2022-07-22T05:31:56;97726.22;;;24.91;100.00
8697;BME280;4385;48.848;8.924;2022-07-22T05:34:22;97731.38;;;24.91;100.00
8697;BME280;4385;48.848;8.924;2022-07-22T05:36:47;97725.34;;;24.90;100.00
8697;BME280;4385;48.848;8.924;2022-07-22T05:39:12;97731.38;;;24.91;100.00
8697;BME280;4385;48.848;8.924;2022-07-22T05:41:38;97736.53;;;24.91;100.00
8697;BME280;4385;48.848;8.924;2022-07-22T05:44:04;97731.38;;;24.91;100.00
8697;BME280;4385;48.848;8.924;2022-07-22T05:46:29;97733.88;;;24.93;100.00
8697;BME280;4385;48.848;8.924;2022-07-22T05:48:55;97731.38;;;24.91;100.00
8697;BME280;4385;48.848;8.924;2022-07-22T05:51:20;97732.13;;;24.93;100.00
8697;BME280;4385;48.848;8.924;2022-07-22T05:53:45;97733.88;;;24.93;100.00
8697;BME280;4385;48.848;8.924;2022-07-22T05:56:11;97734.72;;;24.93;100.00
8697;BME280;4385;48.848;8.924;2022-07-22T05:58:38;97736.38;;;24.94;100.00
8697;BME280;4385;48.848;8.924;2022-07-22T06:01:04;97731.22;;;24.94;100.00
8697;BME280;4385;48.848;8.924;2022-07-22T06:03:29;97728.66;;;24.94;100.00
8697;BME280;4385;48.848;8.924;2022-07-22T06:05:54;97732.88;;;24.95;100.00
8697;BME280;4385;48.848;8.924;2022-07-22T06:08:20;97733.72;;;24.96;100.00
8697;BME280;4385;48.848;8.924;2022-07-22T06:10:45;97738.03;;;24.95;100.00
8697;BME280;4385;48.848;8.924;2022-07-22T06:13:10;97726.91;;;24.95;100.00
8697;BME280;4385;48.848;8.924;2022-07-22T06:15:36;97733.72;;;24.96;100.00
8697;BME280;4385;48.848;8.924;2022-07-22T06:18:01;97726.84;;;24.96;100.00
8697;BME280;4385;48.848;8.924;2022-07-22T06:20:26;97729.41;;;24.96;100.00
8697;BME280;4385;48.848;8.924;2022-07-22T06:22:52;97720.78;;;24.97;100.00
8697;BME280;4385;48.848;8.924;2022-07-22T06:25:17;97736.09;;;25.00;100.00
8697;BME280;4385;48.848;8.924;2022-07-22T06:27:43;97729.81;;;25.06;100.00
8697;BME280;4385;48.848;8.924;2022-07-22T06:30:08;97726.88;;;25.14;100.00
8697;BME280;4385;48.848;8.924;2022-07-22T06:32:34;97724.88;;;25.21;100.00
8697;BME280;4385;48.848;8.924;2022-07-22T06:34:59;97729.88;;;25.24;100.00
8697;BME280;4385;48.848;8.924;2022-07-22T06:37:24;97726.47;;;25.23;100.00
8697;BME280;4385;48.848;8.924;2022-07-22T06:39:50;97728.22;;;25.23;100.00
8697;BME280;4385;48.848;8.924;2022-07-22T06:42:15;97728.28;;;25.21;100.00
8697;BME280;4385;48.848;8.924;2022-07-22T06:44:40;97721.16;;;25.26;100.00
8697;BME280;4385;48.848;8.924;2022-07-22T06:47:05;97718.66;;;25.25;100.00
8697;BME280;4385;48.848;8.924;2022-07-22T06:49:31;97717.56;;;25.31;100.00
8697;BME280;4385;48.848;8.924;2022-07-22T06:51:56;97722.41;;;25.37;100.00
8697;BME280;4385;48.848;8.924;2022-07-22T06:54:21;97715.28;;;25.42;100.00
8697;BME280;4385;48.848;8.924;2022-07-22T06:56:47;97721.06;;;25.47;100.00
8697;BME280;4385;48.848;8.924;2022-07-22T06:59:12;97722.06;;;25.45;100.00
8697;BME280;4385;48.848;8.924;2022-07-22T07:01:37;97721.97;;;25.46;100.00
8697;BME280;4385;48.848;8.924;2022-07-22T07:04:03;97712.41;;;25.48;100.00
8697;BME280;4385;48.848;8.924;2022-07-22T07:06:28;97712.19;;;25.53;100.00
8697;BME280;4385;48.848;8.924;2022-07-22T07:08:53;97711.38;;;25.52;100.00
8697;BME280;4385;48.848;8.924;2022-07-22T07:11:19;97696.63;;;25.55;100.00
8697;BME280;4385;48.848;8.924;2022-07-22T07:13:44;97701.06;;;25.52;100.00
8697;BME280;4385;48.848;8.924;2022-07-22T07:16:10;97697.56;;;25.53;100.00
8697;BME280;4385;48.848;8.924;2022-07-22T07:18:35;97695.91;;;25.52;100.00
8697;BME280;4385;48.848;8.924;2022-07-22T07:21:00;97694.06;;;25.55;100.00
8697;BME280;4385;48.848;8.924;2022-07-22T07:23:26;97687.16;;;25.55;100.00
8697;BME280;4385;48.848;8.924;2022-07-22T07:25:51;97688.75;;;25.58;100.00
8697;BME280;4385;48.848;8.924;2022-07-22T07:28:17;97688.75;;;25.58;100.00
8697;BME280;4385;48.848;8.924;2022-07-22T07:30:42;97685.28;;;25.59;100.00
8697;BME280;4385;48.848;8.924;2022-07-22T07:33:08;97686.94;;;25.60;100.00
8697;BME280;4385;48.848;8.924;2022-07-22T07:35:33;97682.56;;;25.62;100.00
8697;BME280;4385;48.848;8.924;2022-07-22T07:37:59;97679.00;;;25.64;100.00
8697;BME280;4385;48.848;8.924;2022-07-22T07:40:25;97684.09;;;25.66;100.00
8697;BME280;4385;48.848;8.924;2022-07-22T07:42:50;97681.34;;;25.69;100.00
8697;BME280;4385;48.848;8.924;2022-07-22T07:45:16;97682.88;;;25.73;100.00
8697;BME280;4385;48.848;8.924;2022-07-22T07:47:41;97679.38;;;25.74;100.00
8697;BME280;4385;48.848;8.924;2022-07-22T07:50:08;97672.16;;;25.81;100.00
8697;BME280;4385;48.848;8.924;2022-07-22T07:52:43;97677.41;;;25.80;100.00
8697;BME280;4385;48.848;8.924;2022-07-22T07:55:10;97680.13;;;25.76;100.00
8697;BME280;4385;48.848;8.924;2022-07-22T07:57:37;97681.13;;;25.74;100.00
8697;BME280;4385;48.848;8.924;2022-07-22T08:00:05;97679.38;;;25.74;100.00
8697;BME280;4385;48.848;8.924;2022-07-22T08:02:31;97676.13;;;25.71;100.00
8697;BME280;4385;48.848;8.924;2022-07-22T08:04:56;97677.84;;;25.70;100.00
8697;BME280;4385;48.848;8.924;2022-07-22T08:07:22;97681.28;;;25.71;100.00
8697;BME280;4385;48.848;8.924;2022-07-22T08:09:47;97680.34;;;25.72;100.00
8697;BME280;4385;48.848;8.924;2022-07-22T08:12:12;97670.97;;;25.71;100.00
8697;BME280;4385;48.848;8.924;2022-07-22T08:14:38;97675.19;;;25.72;100.00
8697;BME280;4385;48.848;8.924;2022-07-22T08:17:03;97672.63;;;25.72;100.00
8697;BME280;4385;48.848;8.924;2022-07-22T08:19:29;97671.94;;;25.68;100.00
8697;BME280;4385;48.848;8.924;2022-07-22T08:21:54;97675.28;;;25.70;100.00
8697;BME280;4385;48.848;8.924;2022-07-22T08:24:19;97672.69;;;25.70;100.00
8697;BME280;4385;48.848;8.924;2022-07-22T08:26:44;97670.13;;;25.70;100.00
8697;BME280;4385;48.848;8.924;2022-07-22T08:29:10;97669.97;;;25.73;100.00
8697;BME280;4385;48.848;8.924;2022-07-22T08:31:36;97670.88;;;25.72;100.00
8697;BME280;4385;48.848;8.924;2022-07-22T08:34:03;97663.13;;;25.72;100.00
8697;BME280;4385;48.848;8.924;2022-07-22T08:36:29;97661.47;;;25.71;100.00
8697;BME280;4385;48.848;8.924;2022-07-22T08:38:54;97657.06;;;25.73;100.00
8697;BME280;4385;48.848;8.924;2022-07-22T08:41:21;97646.88;;;25.70;100.00
8697;BME280;4385;48.848;8.924;2022-07-22T08:43:46;97651.22;;;25.70;100.00
8697;BME280;4385;48.848;8.924;2022-07-22T08:46:12;97652.03;;;25.70;100.00
8697;BME280;4385;48.848;8.924;2022-07-22T08:48:38;97647.66;;;25.72;100.00
8697;BME280;4385;48.848;8.924;2022-07-22T08:51:04;97646.72;;;25.73;100.00
8697;BME280;4385;48.848;8.924;2022-07-22T08:53:30;97640.59;;;25.76;100.00
8697;BME280;4385;48.848;8.924;2022-07-22T08:55:55;97643.91;;;25.78;100.00
8697;BME280;4385;48.848;8.924;2022-07-22T08:58:21;97636.09;;;25.80;100.00
8697;BME280;4385;48.848;8.924;2022-07-22T09:01:12;97640.44;;;25.79;100.00
8697;BME280;4385;48.848;8.924;2022-07-22T09:03:52;97644.47;;;25.85;100.00
8697;BME280;4385;48.848;8.924;2022-07-22T09:06:19;97643.53;;;25.86;100.00
8697;BME280;4385;48.848;8.924;2022-07-22T09:08:53;97647.88;;;25.85;100.00
8697;BME280;4385;48.848;8.924;2022-07-22T09:11:20;97647.03;;;25.85;100.00
8697;BME280;4385;48.848;8.924;2022-07-22T09:13:46;97640.28;;;25.82;100.00
8697;BME280;4385;48.848;8.924;2022-07-22T09:16:12;97641.09;;;25.83;100.00
8697;BME280;4385;48.848;8.924;2022-07-22T09:18:49;97633.38;;;25.83;100.00
8697;BME280;4385;48.848;8.924;2022-07-22T09:21:15;97635.06;;;25.84;100.00
8697;BME280;4385;48.848;8.924;2022-07-22T09:23:41;97635.94;;;25.83;100.00
8697;BME280;4385;48.848;8.924;2022-07-22T09:26:08;97629.13;;;25.82;100.00
8697;BME280;4385;48.848;8.924;2022-07-22T09:28:33;97629.97;;;25.82;100.00
8697;BME280;4385;48.848;8.924;2022-07-22T09:30:59;97625.78;;;25.80;100.00
8697;BME280;4385;48.848;8.924;2022-07-22T09:33:25;97622.38;;;25.79;100.00
8697;BME280;4385;48.848;8.924;2022-07-22T09:35:51;97625.03;;;25.77;100.00
8697;BME280;4385;48.848;8.924;2022-07-22T09:38:19;97625.94;;;25.76;100.00
8697;BME280;4385;48.848;8.924;2022-07-22T09:40:51;97629.44;;;25.75;100.00
8697;BME280;4385;48.848;8.924;2022-07-22T09:43:18;97618.50;;;25.70;100.00
8697;BME280;4385;48.848;8.924;2022-07-22T09:45:51;97610.84;;;25.69;100.00
8697;BME280;4385;48.848;8.924;2022-07-22T09:48:20;97610.19;;;25.65;100.00
8697;BME280;4385;48.848;8.924;2022-07-22T09:50:47;97609.47;;;25.61;100.00
8697;BME280;4385;48.848;8.924;2022-07-22T09:53:14;97609.53;;;25.60;100.00
8697;BME280;4385;48.848;8.924;2022-07-22T09:55:39;97615.69;;;25.57;100.00
8697;BME280;4385;48.848;8.924;2022-07-22T09:58:06;97613.19;;;25.56;100.00
8697;BME280;4385;48.848;8.924;2022-07-22T10:00:33;97605.44;;;25.56;100.00
8697;BME280;4385;48.848;8.924;2022-07-22T10:03:03;97592.53;;;25.56;100.00
8697;BME280;4385;48.848;8.924;2022-07-22T10:05:31;97588.28;;;25.55;100.00
8697;BME280;4385;48.848;8.924;2022-07-22T10:07:57;97587.53;;;25.52;100.00
8697;BME280;4385;48.848;8.924;2022-07-22T10:10:26;97584.19;;;25.50;100.00
8697;BME280;4385;48.848;8.924;2022-07-22T10:12:54;97590.28;;;25.49;100.00
8697;BME280;4385;48.848;8.924;2022-07-22T10:15:21;97588.59;;;25.48;100.00
8697;BME280;4385;48.848;8.924;2022-07-22T10:17:49;97585.19;;;25.48;100.00
8697;BME280;4385;48.848;8.924;2022-07-22T10:20:23;97577.53;;;25.46;100.00
8697;BME280;4385;48.848;8.924;2022-07-22T10:22:57;97569.78;;;25.46;100.00
8697;BME280;4385;48.848;8.924;2022-07-22T10:25:25;97573.25;;;25.45;100.00
8697;BME280;4385;48.848;8.924;2022-07-22T10:30:25;97569.03;;;25.44;100.00
8697;BME280;4385;48.848;8.924;2022-07-22T10:33:20;97564.84;;;25.42;100.00
8697;BME280;4385;48.848;8.924;2022-07-22T10:38:11;97555.44;;;25.40;100.00
8697;BME280;4385;48.848;8.924;2022-07-22T10:40:57;97549.72;;;25.51;100.00
8697;BME280;4385;48.848;8.924;2022-07-22T10:43:26;97557.25;;;25.56;100.00
8697;BME280;4385;48.848;8.924;2022-07-22T10:46:02;97554.59;;;25.58;100.00
8697;BME280;4385;48.848;8.924;2022-07-22T10:56:17;97550.50;;;25.71;100.00
8697;BME280;4385;48.848;8.924;2022-07-22T10:58:45;97541.84;;;25.72;100.00
8697;BME280;4385;48.848;8.924;2022-07-22T11:01:14;97543.50;;;25.73;100.00
8697;BME280;4385;48.848;8.924;2022-07-22T11:03:43;97550.34;;;25.74;100.00
8697;BME280;4385;48.848;8.924;2022-07-22T11:06:25;97532.28;;;25.74;100.00
8697;BME280;4385;48.848;8.924;2022-07-22T11:08:57;97528.72;;;25.77;100.00
8697;BME280;4385;48.848;8.924;2022-07-22T11:11:41;97530.28;;;25.80;100.00
8697;BME280;4385;48.848;8.924;2022-07-22T11:14:22;97525.88;;;25.82;100.00
8697;BME280;4385;48.848;8.924;2022-07-22T11:16:51;97538.72;;;25.83;100.00
8697;BME280;4385;48.848;8.924;2022-07-22T11:19:22;97527.47;;;25.84;100.00
8697;BME280;4385;48.848;8.924;2022-07-22T11:21:52;97530.72;;;25.88;100.00
8697;BME280;4385;48.848;8.924;2022-07-22T11:24:18;97522.91;;;25.89;100.00
8697;BME280;4385;48.848;8.924;2022-07-22T11:26:50;97511.56;;;25.92;100.00
8697;BME280;4385;48.848;8.924;2022-07-22T11:29:34;97511.56;;;25.92;100.00
8697;BME280;4385;48.848;8.924;2022-07-22T11:32:01;97510.53;;;25.96;100.00
8697;BME280;4385;48.848;8.924;2022-07-22T11:34:27;97504.44;;;25.97;100.00
8697;BME280;4385;48.848;8.924;2022-07-22T11:36:54;97500.03;;;25.99;100.00
8697;BME280;4385;48.848;8.924;2022-07-22T11:39:22;97499.88;;;26.02;100.00
8697;BME280;4385;48.848;8.924;2022-07-22T11:41:49;97487.69;;;26.05;100.00
8697;BME280;4385;48.848;8.924;2022-07-22T11:44:19;97485.78;;;26.08;100.00
8697;BME280;4385;48.848;8.924;2022-07-22T11:46:45;97474.44;;;26.11;100.00
8697;BME280;4385;48.848;8.924;2022-07-22T11:49:17;97474.44;;;26.11;100.00
8697;BME280;4385;48.848;8.924;2022-07-22T11:51:43;97469.28;;;26.11;100.00
8697;BME280;4385;48.848;8.924;2022-07-22T11:54:08;97468.31;;;26.13;100.00
8697;BME280;4385;48.848;8.924;2022-07-22T11:56:34;97457.13;;;26.13;100.00
8697;BME280;4385;48.848;8.924;2022-07-22T11:59:00;97445.78;;;26.15;100.00
8697;BME280;4385;48.848;8.924;2022-07-22T12:01:31;97455.94;;;26.19;100.00
8697;BME280;4385;48.848;8.924;2022-07-22T12:04:02;97446.47;;;26.19;100.00
8697;BME280;4385;48.848;8.924;2022-07-22T12:06:29;97448.13;;;26.20;100.00
8697;BME280;4385;48.848;8.924;2022-07-22T12:09:11;97447.22;;;26.21;100.00
8697;BME280;4385;48.848;8.924;2022-07-22T12:11:39;97447.88;;;26.25;100.00
8697;BME280;4385;48.848;8.924;2022-07-22T12:14:10;97444.16;;;26.31;100.00
8697;BME280;4385;48.848;8.924;2022-07-22T12:16:37;97436.78;;;26.39;100.00
8697;BME280;4385;48.848;8.924;2022-07-22T12:19:05;97437.47;;;26.43;100.00
8697;BME280;4385;48.848;8.924;2022-07-22T12:21:34;97432.22;;;26.44;100.00
8697;BME280;4385;48.848;8.924;2022-07-22T12:24:01;97432.13;;;26.46;100.00
8697;BME280;4385;48.848;8.924;2022-07-22T12:26:45;97434.78;;;26.44;100.00
8697;BME280;4385;48.848;8.924;2022-07-22T12:29:21;97429.53;;;26.46;100.00
8697;BME280;4385;48.848;8.924;2022-07-22T12:31:52;97433.44;;;26.53;100.00
8697;BME280;4385;48.848;8.924;2022-07-22T12:36:55;97429.59;;;26.60;100.00
8697;BME280;4385;48.848;8.924;2022-07-22T12:39:21;97431.53;;;26.57;100.00
8697;BME280;4385;48.848;8.924;2022-07-22T12:41:51;97424.78;;;26.54;100.00
8697;BME280;4385;48.848;8.924;2022-07-22T12:44:22;97424.88;;;26.52;100.00
8697;BME280;4385;48.848;8.924;2022-07-22T12:46:51;97417.94;;;26.53;100.00
8697;BME280;4385;48.848;8.924;2022-07-22T12:49:22;97408.34;;;26.55;100.00
8697;BME280;4385;48.848;8.924;2022-07-22T12:52:07;97406.63;;;26.56;100.00
8697;BME280;4385;48.848;8.924;2022-07-22T12:54:33;97400.50;;;26.57;100.00
8697;BME280;4385;48.848;8.924;2022-07-22T12:56:59;97399.75;;;26.55;100.00
8697;BME280;4385;48.848;8.924;2022-07-22T12:59:25;97400.59;;;26.55;100.00
8697;BME280;4385;48.848;8.924;2022-07-22T13:01:50;97394.59;;;26.55;100.00
8697;BME280;4385;48.848;8.924;2022-07-22T13:04:15;97398.88;;;26.56;100.00
8697;BME280;4385;48.848;8.924;2022-07-22T13:06:41;97407.34;;;26.58;100.00
8697;BME280;4385;48.848;8.924;2022-07-22T13:09:06;97400.34;;;26.60;100.00
8697;BME280;4385;48.848;8.924;2022-07-22T13:11:32;97391.47;;;26.64;100.00
8697;BME280;4385;48.848;8.924;2022-07-22T13:13:57;97386.72;;;26.72;100.00
8697;BME280;4385;48.848;8.924;2022-07-22T13:16:22;97382.19;;;26.76;100.00
8697;BME280;4385;48.848;8.924;2022-07-22T13:18:50;97383.50;;;26.83;100.00
8697;BME280;4385;48.848;8.924;2022-07-22T13:21:15;97379.34;;;26.81;100.00
8697;BME280;4385;48.848;8.924;2022-07-22T13:23:40;97380.19;;;26.81;100.00